sensor_id;sensor_type;location;lat;lon;timestamp;pressure;altitude;pressure_sealevel;temperature;humidity
35716;BME280;21840;44.920;8.616;2023-04-01T00:00:57;99450.09;;;15.20;51.15
35716;BME280;21840;44.920;8.616;2023-04-01T00:03:23;99440.97;;;15.44;50.85
35716;BME280;21840;44.920;8.616;2023-04-01T00:05:49;99437.94;;;15.47;50.52
35716;BME280;21840;44.920;8.616;2023-04-01T00:08:15;99441.06;;;15.50;50.74
35716;BME280;21840;44.920;8.616;2023-04-01T00:10:41;99437.38;;;15.51;50.81
35716;BME280;21840;44.920;8.616;2023-04-01T00:13:07;99421.56;;;15.58;50.73
35716;BME280;21840;44.920;8.616;2023-04-01T00:15:32;99415.97;;;15.68;50.83
35716;BME280;21840;44.920;8.616;2023-04-01T00:17:58;99408.72;;;15.77;50.51
35716;BME280;21840;44.920;8.616;2023-04-01T00:20:24;99400.25;;;15.88;50.38
35716;BME280;21840;44.920;8.616;2023-04-01T00:22:49;99402.34;;;15.99;50.36
35716;BME280;21840;44.920;8.616;2023-04-01T00:25:15;99396.69;;;15.74;51.04
35716;BME280;21840;44.920;8.616;2023-04-01T00:27:41;99392.84;;;15.77;50.98
35716;BME280;21840;44.920;8.616;2023-04-01T00:30:08;99382.88;;;15.79;50.82
35716;BME280;21840;44.920;8.616;2023-04-01T00:32:34;99392.25;;;15.60;51.33
35716;BME280;21840;44.920;8.616;2023-04-01T00:35:00;99390.56;;;15.73;50.83
35716;BME280;21840;44.920;8.616;2023-04-01T00:37:27;99397.00;;;15.92;50.45
35716;BME280;21840;44.920;8.616;2023-04-01T00:39:54;99386.97;;;15.81;49.96
35716;BME280;21840;44.920;8.616;2023-04-01T00:42:20;99398.41;;;15.60;50.13
35716;BME280;21840;44.920;8.616;2023-04-01T00:44:51;99393.56;;;15.21;50.68
35716;BME280;21840;44.920;8.616;2023-04-01T00:47:17;99386.72;;;14.90;50.72
35716;BME280;21840;44.920;8.616;2023-04-01T00:49:46;99387.84;;;14.81;50.65
35716;BME280;21840;44.920;8.616;2023-04-01T00:52:18;99379.94;;;14.66;50.92
35716;BME280;21840;44.920;8.616;2023-04-01T00:54:47;99371.38;;;14.64;50.89
35716;BME280;21840;44.920;8.616;2023-04-01T00:57:25;99377.69;;;14.48;51.38
35716;BME280;21840;44.920;8.616;2023-04-01T00:59:55;99383.56;;;14.80;50.55
35716;BME280;21840;44.920;8.616;2023-04-01T01:02:22;99372.75;;;14.60;50.54
35716;BME280;21840;44.920;8.616;2023-04-01T01:04:48;99361.75;;;14.12;51.33
35716;BME280;21840;44.920;8.616;2023-04-01T01:09:52;99377.81;;;13.72;52.14
35716;BME280;21840;44.920;8.616;2023-04-01T01:12:27;99364.56;;;13.80;51.92
35716;BME280;21840;44.920;8.616;2023-04-01T01:14:59;99364.13;;;13.92;52.16
35716;BME280;21840;44.920;8.616;2023-04-01T01:34:04;99334.38;;;13.83;51.74
35716;BME280;21840;44.920;8.616;2023-04-01T01:36:34;99332.00;;;13.88;51.82
35716;BME280;21840;44.920;8.616;2023-04-01T01:39:03;99327.00;;;14.08;51.26
35716;BME280;21840;44.920;8.616;2023-04-01T01:41:31;99336.09;;;14.06;50.85
35716;BME280;21840;44.920;8.616;2023-04-01T01:43:58;99321.34;;;13.96;50.74
35716;BME280;21840;44.920;8.616;2023-04-01T01:46:26;99325.78;;;14.26;50.28
35716;BME280;21840;44.920;8.616;2023-04-01T01:48:53;99316.94;;;14.33;49.85
35716;BME280;21840;44.920;8.616;2023-04-01T01:51:21;99322.94;;;14.27;49.75
35716;BME280;21840;44.920;8.616;2023-04-01T01:53:48;99302.56;;;14.36;49.37
35716;BME280;21840;44.920;8.616;2023-04-01T01:56:18;99310.47;;;14.36;49.44
35716;BME280;21840;44.920;8.616;2023-04-01T01:58:47;99305.50;;;14.48;48.60
35716;BME280;21840;44.920;8.616;2023-04-01T02:01:22;99300.81;;;14.43;48.69
35716;BME280;21840;44.920;8.616;2023-04-01T02:03:50;99309.44;;;14.52;47.81
35716;BME280;21840;44.920;8.616;2023-04-01T02:06:23;99298.28;;;14.20;48.92
35716;BME280;21840;44.920;8.616;2023-04-01T02:08:51;99310.84;;;14.33;48.42
35716;BME280;21840;44.920;8.616;2023-04-01T02:11:26;99297.59;;;13.96;49.19
35716;BME280;21840;44.920;8.616;2023-04-01T02:14:01;99291.50;;;13.81;49.18
35716;BME280;21840;44.920;8.616;2023-04-01T02:16:34;99307.69;;;13.63;48.80
35716;BME280;21840;44.920;8.616;2023-04-01T02:19:02;99306.97;;;13.84;48.40
35716;BME280;21840;44.920;8.616;2023-04-01T02:21:33;99321.13;;;13.53;48.78
35716;BME280;21840;44.920;8.616;2023-04-01T02:24:02;99338.69;;;13.46;48.44
35716;BME280;21840;44.920;8.616;2023-04-01T02:26:29;99340.63;;;13.29;48.41
35716;BME280;21840;44.920;8.616;2023-04-01T02:28:57;99343.19;;;12.91;49.87
35716;BME280;21840;44.920;8.616;2023-04-01T02:31:25;99331.00;;;13.13;49.19
35716;BME280;21840;44.920;8.616;2023-04-01T02:33:51;99323.38;;;13.19;48.98
35716;BME280;21840;44.920;8.616;2023-04-01T02:36:17;99322.44;;;13.34;48.69
35716;BME280;21840;44.920;8.616;2023-04-01T02:38:45;99327.97;;;12.79;49.77
35716;BME280;21840;44.920;8.616;2023-04-01T02:41:11;99341.91;;;12.56;50.13
35716;BME280;21840;44.920;8.616;2023-04-01T02:43:37;99333.09;;;12.72;49.99
35716;BME280;21840;44.920;8.616;2023-04-01T02:46:03;99342.94;;;12.47;49.87
35716;BME280;21840;44.920;8.616;2023-04-01T02:48:29;99340.97;;;12.49;49.90
35716;BME280;21840;44.920;8.616;2023-04-01T02:50:55;99345.75;;;12.06;51.14
35716;BME280;21840;44.920;8.616;2023-04-01T02:53:21;99337.63;;;12.55;50.09
35716;BME280;21840;44.920;8.616;2023-04-01T02:55:47;99337.97;;;12.52;49.81
35716;BME280;21840;44.920;8.616;2023-04-01T02:58:16;99339.19;;;12.41;50.17
35716;BME280;21840;44.920;8.616;2023-04-01T03:00:42;99336.00;;;12.15;50.80
35716;BME280;21840;44.920;8.616;2023-04-01T03:03:08;99338.81;;;12.13;50.77
35716;BME280;21840;44.920;8.616;2023-04-01T03:05:33;99345.56;;;12.16;50.29
35716;BME280;21840;44.920;8.616;2023-04-01T03:07:59;99336.22;;;12.44;50.03
35716;BME280;21840;44.920;8.616;2023-04-01T03:10:24;99338.97;;;12.12;50.20
35716;BME280;21840;44.920;8.616;2023-04-01T03:12:50;99337.22;;;11.96;51.00
35716;BME280;21840;44.920;8.616;2023-04-01T03:15:16;99346.06;;;12.03;50.55
35716;BME280;21840;44.920;8.616;2023-04-01T03:17:42;99354.34;;;11.67;51.52
35716;BME280;21840;44.920;8.616;2023-04-01T03:20:10;99355.13;;;11.84;51.13
35716;BME280;21840;44.920;8.616;2023-04-01T03:22:36;99363.53;;;11.87;51.57
35716;BME280;21840;44.920;8.616;2023-04-01T03:25:04;99363.06;;;11.59;52.13
35716;BME280;21840;44.920;8.616;2023-04-01T03:27:31;99374.03;;;12.04;51.80
35716;BME280;21840;44.920;8.616;2023-04-01T03:29:57;99374.06;;;11.96;51.33
35716;BME280;21840;44.920;8.616;2023-04-01T03:32:22;99372.91;;;11.74;51.77
35716;BME280;21840;44.920;8.616;2023-04-01T03:34:48;99379.47;;;11.86;51.74
35716;BME280;21840;44.920;8.616;2023-04-01T03:37:13;99376.38;;;11.91;51.99
35716;BME280;21840;44.920;8.616;2023-04-01T03:39:39;99378.97;;;11.99;51.91
35716;BME280;21840;44.920;8.616;2023-04-01T03:42:05;99376.22;;;11.76;52.05
35716;BME280;21840;44.920;8.616;2023-04-01T03:44:33;99387.84;;;12.06;51.32
35716;BME280;21840;44.920;8.616;2023-04-01T03:46:59;99390.81;;;11.95;51.46
35716;BME280;21840;44.920;8.616;2023-04-01T03:49:26;99393.75;;;12.08;51.75
35716;BME280;21840;44.920;8.616;2023-04-01T03:51:51;99395.44;;;12.01;52.02
35716;BME280;21840;44.920;8.616;2023-04-01T03:54:17;99382.09;;;12.11;51.25
35716;BME280;21840;44.920;8.616;2023-04-01T03:56:45;99388.63;;;12.15;51.74
35716;BME280;21840;44.920;8.616;2023-04-01T03:59:11;99387.13;;;12.20;51.65
35716;BME280;21840;44.920;8.616;2023-04-01T04:01:36;99380.97;;;11.64;52.96
35716;BME280;21840;44.920;8.616;2023-04-01T04:04:02;99389.16;;;12.02;52.21
35716;BME280;21840;44.920;8.616;2023-04-01T04:06:28;99393.72;;;12.24;51.66
35716;BME280;21840;44.920;8.616;2023-04-01T04:08:54;99389.25;;;12.25;51.72
35716;BME280;21840;44.920;8.616;2023-04-01T04:11:21;99381.34;;;12.33;51.61
35716;BME280;21840;44.920;8.616;2023-04-01T04:13:49;99379.19;;;12.37;51.47
35716;BME280;21840;44.920;8.616;2023-04-01T04:16:16;99380.63;;;12.47;51.09
35716;BME280;21840;44.920;8.616;2023-04-01T04:18:45;99376.09;;;12.33;51.19
35716;BME280;21840;44.920;8.616;2023-04-01T04:21:13;99373.22;;;12.43;51.55
35716;BME280;21840;44.920;8.616;2023-04-01T04:23:40;99376.72;;;12.43;51.38
35716;BME280;21840;44.920;8.616;2023-04-01T04:26:07;99372.91;;;12.38;51.24
35716;BME280;21840;44.920;8.616;2023-04-01T04:28:34;99381.75;;;12.14;50.41
35716;BME280;21840;44.920;8.616;2023-04-01T04:31:00;99378.19;;;12.38;49.75
35716;BME280;21840;44.920;8.616;2023-04-01T04:33:27;99396.41;;;12.56;48.91
35716;BME280;21840;44.920;8.616;2023-04-01T04:35:56;99405.69;;;12.35;47.50
35716;BME280;21840;44.920;8.616;2023-04-01T04:38:23;99407.34;;;12.28;48.79
35716;BME280;21840;44.920;8.616;2023-04-01T04:40:48;99413.44;;;12.20;48.64
35716;BME280;21840;44.920;8.616;2023-04-01T04:43:16;99412.22;;;11.92;49.22
35716;BME280;21840;44.920;8.616;2023-04-01T04:45:42;99414.28;;;12.13;48.96
35716;BME280;21840;44.920;8.616;2023-04-01T04:48:10;99410.88;;;11.71;49.15
35716;BME280;21840;44.920;8.616;2023-04-01T04:50:40;99404.13;;;11.85;49.02
35716;BME280;21840;44.920;8.616;2023-04-01T04:53:05;99396.91;;;11.87;49.03
35716;BME280;21840;44.920;8.616;2023-04-01T04:55:32;99391.63;;;11.95;48.46
35716;BME280;21840;44.920;8.616;2023-04-01T04:58:16;99388.00;;;12.04;48.07
35716;BME280;21840;44.920;8.616;2023-04-01T05:00:44;99391.63;;;12.03;47.23
35716;BME280;21840;44.920;8.616;2023-04-01T05:03:17;99402.69;;;11.91;47.60
35716;BME280;21840;44.920;8.616;2023-04-01T05:05:52;99392.16;;;11.91;48.22
35716;BME280;21840;44.920;8.616;2023-04-01T05:08:19;99384.91;;;12.01;47.94
35716;BME280;21840;44.920;8.616;2023-04-01T05:10:46;99393.91;;;12.15;45.92
35716;BME280;21840;44.920;8.616;2023-04-01T05:13:12;99412.13;;;12.24;46.41
35716;BME280;21840;44.920;8.616;2023-04-01T05:15:40;99419.84;;;12.34;46.72
35716;BME280;21840;44.920;8.616;2023-04-01T05:18:06;99420.84;;;12.25;46.52
35716;BME280;21840;44.920;8.616;2023-04-01T05:20:32;99425.94;;;12.26;46.24
35716;BME280;21840;44.920;8.616;2023-04-01T05:22:59;99419.66;;;12.44;46.06
35716;BME280;21840;44.920;8.616;2023-04-01T05:25:25;99429.53;;;12.42;45.79
35716;BME280;21840;44.920;8.616;2023-04-01T05:27:51;99411.03;;;12.58;45.56
35716;BME280;21840;44.920;8.616;2023-04-01T05:30:17;99420.84;;;12.72;45.52
35716;BME280;21840;44.920;8.616;2023-04-01T05:32:56;99421.19;;;12.69;45.83
35716;BME280;21840;44.920;8.616;2023-04-01T05:35:23;99411.91;;;12.82;45.04
35716;BME280;21840;44.920;8.616;2023-04-01T05:37:49;99427.72;;;12.82;44.09
35716;BME280;21840;44.920;8.616;2023-04-01T05:40:15;99428.91;;;13.02;43.88
35716;BME280;21840;44.920;8.616;2023-04-01T05:42:40;99437.91;;;12.85;44.66
35716;BME280;21840;44.920;8.616;2023-04-01T05:45:06;99435.00;;;13.03;44.04
35716;BME280;21840;44.920;8.616;2023-04-01T05:48:04;99428.31;;;12.92;43.72
35716;BME280;21840;44.920;8.616;2023-04-01T05:50:39;99441.78;;;12.97;44.21
35716;BME280;21840;44.920;8.616;2023-04-01T05:53:05;99467.78;;;13.08;43.82
35716;BME280;21840;44.920;8.616;2023-04-01T05:55:31;99460.16;;;13.13;43.16
35716;BME280;21840;44.920;8.616;2023-04-01T05:57:57;99454.81;;;13.30;42.23
35716;BME280;21840;44.920;8.616;2023-04-01T06:00:22;99448.84;;;13.36;41.75
35716;BME280;21840;44.920;8.616;2023-04-01T06:02:49;99451.59;;;13.11;41.99
35716;BME280;21840;44.920;8.616;2023-04-01T06:05:21;99459.41;;;13.36;42.17
35716;BME280;21840;44.920;8.616;2023-04-01T06:07:47;99479.84;;;13.57;42.41
35716;BME280;21840;44.920;8.616;2023-04-01T06:10:19;99486.88;;;13.42;42.94
35716;BME280;21840;44.920;8.616;2023-04-01T06:26:30;99480.03;;;13.78;41.12
35716;BME280;21840;44.920;8.616;2023-04-01T06:29:05;99473.72;;;14.17;40.72
35716;BME280;21840;44.920;8.616;2023-04-01T06:40:02;99484.72;;;15.25;37.22
35716;BME280;21840;44.920;8.616;2023-04-01T06:45:53;99483.13;;;15.67;35.96
35716;BME280;21840;44.920;8.616;2023-04-01T06:52:05;99485.72;;;16.03;34.20
35716;BME280;21840;44.920;8.616;2023-04-01T06:54:58;99475.06;;;16.25;33.48
35716;BME280;21840;44.920;8.616;2023-04-01T06:57:57;99475.09;;;16.31;33.06
35716;BME280;21840;44.920;8.616;2023-04-01T07:00:36;99477.72;;;16.59;32.82
35716;BME280;21840;44.920;8.616;2023-04-01T07:05:35;99481.44;;;16.72;32.43
35716;BME280;21840;44.920;8.616;2023-04-01T07:08:05;99486.69;;;16.93;33.50
35716;BME280;21840;44.920;8.616;2023-04-01T07:11:03;99481.63;;;16.98;34.19
35716;BME280;21840;44.920;8.616;2023-04-01T07:13:54;99470.63;;;17.08;34.95
35716;BME280;21840;44.920;8.616;2023-04-01T07:16:31;99486.41;;;17.23;34.66
35716;BME280;21840;44.920;8.616;2023-04-01T07:22:03;99481.56;;;17.66;33.89
35716;BME280;21840;44.920;8.616;2023-04-01T07:24:48;99490.78;;;17.71;33.66
35716;BME280;21840;44.920;8.616;2023-04-01T07:27:14;99495.28;;;17.70;32.96
35716;BME280;21840;44.920;8.616;2023-04-01T07:29:41;99494.50;;;18.03;32.35
35716;BME280;21840;44.920;8.616;2023-04-01T07:34:58;99501.41;;;17.71;31.37
35716;BME280;21840;44.920;8.616;2023-04-01T07:42:58;99501.84;;;18.14;29.54
35716;BME280;21840;44.920;8.616;2023-04-01T07:45:45;99489.75;;;18.51;28.99
35716;BME280;21840;44.920;8.616;2023-04-01T07:48:28;99498.19;;;18.08;28.64
35716;BME280;21840;44.920;8.616;2023-04-01T08:07:51;99506.16;;;19.07;26.59
35716;BME280;21840;44.920;8.616;2023-04-01T08:10:57;99514.56;;;19.49;26.31
35716;BME280;21840;44.920;8.616;2023-04-01T08:14:18;99514.38;;;19.44;25.78
35716;BME280;21840;44.920;8.616;2023-04-01T08:17:16;99515.97;;;19.51;25.06
35716;BME280;21840;44.920;8.616;2023-04-01T08:26:12;99511.34;;;20.03;25.62
35716;BME280;21840;44.920;8.616;2023-04-01T08:28:52;99513.41;;;20.01;25.38
35716;BME280;21840;44.920;8.616;2023-04-01T08:31:48;99489.31;;;20.15;25.27
35716;BME280;21840;44.920;8.616;2023-04-01T08:34:24;99487.88;;;20.37;25.17
35716;BME280;21840;44.920;8.616;2023-04-01T08:37:00;99482.56;;;20.37;25.24
35716;BME280;21840;44.920;8.616;2023-04-01T08:39:37;99492.69;;;19.78;24.58
35716;BME280;21840;44.920;8.616;2023-04-01T08:48:27;99504.53;;;20.58;24.24
35716;BME280;21840;44.920;8.616;2023-04-01T08:51:16;99501.25;;;20.74;24.09
35716;BME280;21840;44.920;8.616;2023-04-01T08:56:42;99505.94;;;20.79;24.16
35716;BME280;21840;44.920;8.616;2023-04-01T08:59:27;99511.19;;;20.85;23.77
35716;BME280;21840;44.920;8.616;2023-04-01T09:05:11;99504.56;;;21.06;23.66
35716;BME280;21840;44.920;8.616;2023-04-01T09:10:53;99499.47;;;20.86;23.94
35716;BME280;21840;44.920;8.616;2023-04-01T09:17:04;99503.28;;;20.35;24.26
35716;BME280;21840;44.920;8.616;2023-04-01T09:30:34;99487.50;;;21.26;24.09
35716;BME280;21840;44.920;8.616;2023-04-01T09:35:48;99479.06;;;21.59;23.82
35716;BME280;21840;44.920;8.616;2023-04-01T09:41:21;99494.22;;;21.47;23.29
35716;BME280;21840;44.920;8.616;2023-04-01T09:44:29;99480.28;;;20.96;23.36
35716;BME280;21840;44.920;8.616;2023-04-01T09:52:45;99487.44;;;21.86;22.69
35716;BME280;21840;44.920;8.616;2023-04-01T09:59:01;99477.59;;;21.87;21.51
35716;BME280;21840;44.920;8.616;2023-04-01T10:21:37;99457.28;;;22.45;21.90
35716;BME280;21840;44.920;8.616;2023-04-01T10:24:30;99455.31;;;22.40;21.59
35716;BME280;21840;44.920;8.616;2023-04-01T10:42:03;99433.53;;;23.00;21.48
35716;BME280;21840;44.920;8.616;2023-04-01T10:56:56;99425.13;;;22.97;20.48
35716;BME280;21840;44.920;8.616;2023-04-01T10:59:45;99413.59;;;22.68;21.15
35716;BME280;21840;44.920;8.616;2023-04-01T11:26:08;99394.63;;;23.43;19.08
35716;BME280;21840;44.920;8.616;2023-04-01T11:31:50;99392.72;;;23.89;18.31
35716;BME280;21840;44.920;8.616;2023-04-01T11:49:41;99373.94;;;23.73;18.32
35716;BME280;21840;44.920;8.616;2023-04-01T11:52:53;99360.31;;;23.74;17.55
35716;BME280;21840;44.920;8.616;2023-04-01T12:12:45;99339.59;;;24.30;18.17
35716;BME280;21840;44.920;8.616;2023-04-01T12:18:02;99329.09;;;23.85;17.68
35716;BME280;21840;44.920;8.616;2023-04-01T12:28:27;99313.25;;;23.83;17.74
35716;BME280;21840;44.920;8.616;2023-04-01T12:34:29;99309.78;;;24.05;16.84
35716;BME280;21840;44.920;8.616;2023-04-01T12:36:37;99315.53;;;23.75;17.40
35716;BME280;21840;44.920;8.616;2023-04-01T12:39:48;99310.41;;;24.12;17.16
35716;BME280;21840;44.920;8.616;2023-04-01T12:44:46;99301.97;;;24.25;16.88
35716;BME280;21840;44.920;8.616;2023-04-01T12:56:03;99279.06;;;24.18;16.43
35716;BME280;21840;44.920;8.616;2023-04-01T12:59:13;99290.09;;;24.43;15.36
35716;BME280;21840;44.920;8.616;2023-04-01T13:07:17;99272.69;;;24.73;15.47
35716;BME280;21840;44.920;8.616;2023-04-01T13:21:31;99255.81;;;24.78;15.48
35716;BME280;21840;44.920;8.616;2023-04-01T13:26:58;99251.34;;;25.21;14.53
35716;BME280;21840;44.920;8.616;2023-04-01T13:35:03;99235.28;;;25.31;13.93
35716;BME280;21840;44.920;8.616;2023-04-01T13:38:08;99239.34;;;25.33;13.51
35716;BME280;21840;44.920;8.616;2023-04-01T13:43:25;99237.72;;;25.80;13.03
35716;BME280;21840;44.920;8.616;2023-04-01T13:54:09;99232.69;;;25.89;13.02
35716;BME280;21840;44.920;8.616;2023-04-01T13:56:55;99223.91;;;26.24;13.02
35716;BME280;21840;44.920;8.616;2023-04-01T13:59:49;99229.03;;;26.36;14.35
35716;BME280;21840;44.920;8.616;2023-04-01T14:10:40;99220.06;;;25.99;12.79
35716;BME280;21840;44.920;8.616;2023-04-01T14:13:47;99201.28;;;26.20;13.27
35716;BME280;21840;44.920;8.616;2023-04-01T14:35:40;99182.47;;;27.22;13.26
35716;BME280;21840;44.920;8.616;2023-04-01T14:40:56;99165.28;;;26.67;12.23
35716;BME280;21840;44.920;8.616;2023-04-01T14:51:39;99167.97;;;26.67;12.16
35716;BME280;21840;44.920;8.616;2023-04-01T14:54:16;99169.03;;;26.81;12.41
35716;BME280;21840;44.920;8.616;2023-04-01T14:57:05;99156.41;;;26.61;12.13
35716;BME280;21840;44.920;8.616;2023-04-01T14:59:40;99160.66;;;26.37;12.54
35716;BME280;21840;44.920;8.616;2023-04-01T15:10:58;99157.47;;;27.71;11.28
35716;BME280;21840;44.920;8.616;2023-04-01T15:27:50;99142.38;;;36.17;7.33
35716;BME280;21840;44.920;8.616;2023-04-01T15:36:00;99137.78;;;39.02;6.38
35716;BME280;21840;44.920;8.616;2023-04-01T15:43:48;99126.53;;;37.91;6.02
35716;BME280;21840;44.920;8.616;2023-04-01T15:54:27;99127.84;;;39.64;5.77
35716;BME280;21840;44.920;8.616;2023-04-01T15:57:18;99131.97;;;39.94;5.83
35716;BME280;21840;44.920;8.616;2023-04-01T16:00:22;99129.84;;;39.48;5.50
35716;BME280;21840;44.920;8.616;2023-04-01T16:06:02;99129.44;;;36.05;6.39
35716;BME280;21840;44.920;8.616;2023-04-01T16:11:37;99118.78;;;37.28;6.92
35716;BME280;21840;44.920;8.616;2023-04-01T16:23:04;99119.66;;;34.29;8.43
35716;BME280;21840;44.920;8.616;2023-04-01T16:31:03;99121.31;;;32.90;8.56
35716;BME280;21840;44.920;8.616;2023-04-01T16:36:20;99116.56;;;31.05;9.46
35716;BME280;21840;44.920;8.616;2023-04-01T16:41:19;99121.03;;;29.35;11.94
35716;BME280;21840;44.920;8.616;2023-04-01T16:43:56;99122.81;;;28.97;13.73
35716;BME280;21840;44.920;8.616;2023-04-01T16:46:34;99123.81;;;28.48;14.55
35716;BME280;21840;44.920;8.616;2023-04-01T16:54:31;99109.97;;;27.26;15.87
35716;BME280;21840;44.920;8.616;2023-04-01T17:04:47;99112.47;;;26.15;16.32
35716;BME280;21840;44.920;8.616;2023-04-01T17:10:57;99101.41;;;25.96;16.20
35716;BME280;21840;44.920;8.616;2023-04-01T17:18:54;99118.72;;;25.37;17.03
35716;BME280;21840;44.920;8.616;2023-04-01T17:24:31;99116.03;;;24.89;17.30
35716;BME280;21840;44.920;8.616;2023-04-01T17:30:21;99119.41;;;24.74;17.73
35716;BME280;21840;44.920;8.616;2023-04-01T17:38:18;99135.97;;;24.02;18.47
35716;BME280;21840;44.920;8.616;2023-04-01T17:40:50;99126.19;;;23.90;19.03
35716;BME280;21840;44.920;8.616;2023-04-01T17:43:30;99129.38;;;23.65;19.79
35716;BME280;21840;44.920;8.616;2023-04-01T17:46:04;99132.44;;;23.52;20.11
35716;BME280;21840;44.920;8.616;2023-04-01T18:15:46;99142.91;;;22.42;19.15
35716;BME280;21840;44.920;8.616;2023-04-01T18:24:02;99145.56;;;22.13;18.33
35716;BME280;21840;44.920;8.616;2023-04-01T18:26:38;99153.97;;;22.05;18.51
35716;BME280;21840;44.920;8.616;2023-04-01T18:29:27;99160.09;;;21.89;18.50
35716;BME280;21840;44.920;8.616;2023-04-01T18:32:35;99171.03;;;21.87;18.31
35716;BME280;21840;44.920;8.616;2023-04-01T18:38:11;99167.31;;;21.76;18.20
35716;BME280;21840;44.920;8.616;2023-04-01T18:40:45;99153.34;;;21.58;18.74
35716;BME280;21840;44.920;8.616;2023-04-01T18:43:22;99173.53;;;21.65;18.61
35716;BME280;21840;44.920;8.616;2023-04-01T18:46:00;99157.28;;;21.67;18.87
35716;BME280;21840;44.920;8.616;2023-04-01T18:48:51;99161.22;;;21.64;19.16
35716;BME280;21840;44.920;8.616;2023-04-01T18:54:02;99170.94;;;21.42;19.60
35716;BME280;21840;44.920;8.616;2023-04-01T18:56:37;99173.56;;;21.53;19.58
35716;BME280;21840;44.920;8.616;2023-04-01T18:59:26;99190.91;;;21.39;19.81
35716;BME280;21840;44.920;8.616;2023-04-01T19:05:09;99195.75;;;21.07;20.08
35716;BME280;21840;44.920;8.616;2023-04-01T19:15:27;99198.66;;;20.82;21.55
35716;BME280;21840;44.920;8.616;2023-04-01T19:21:03;99213.78;;;20.58;22.35
35716;BME280;21840;44.920;8.616;2023-04-01T19:23:55;99216.13;;;20.66;22.39
35716;BME280;21840;44.920;8.616;2023-04-01T19:26:48;99214.97;;;20.62;22.74
35716;BME280;21840;44.920;8.616;2023-04-01T19:32:23;99201.63;;;20.62;22.78
35716;BME280;21840;44.920;8.616;2023-04-01T19:35:13;99223.41;;;20.59;23.33
35716;BME280;21840;44.920;8.616;2023-04-01T19:38:47;99218.88;;;20.29;23.68
35716;BME280;21840;44.920;8.616;2023-04-01T19:40:58;99221.25;;;20.19;24.25
35716;BME280;21840;44.920;8.616;2023-04-01T19:51:34;99239.78;;;20.32;24.66
35716;BME280;21840;44.920;8.616;2023-04-01T19:54:24;99253.97;;;20.26;25.01
35716;BME280;21840;44.920;8.616;2023-04-01T19:57:12;99248.75;;;20.19;25.13
35716;BME280;21840;44.920;8.616;2023-04-01T19:59:50;99239.50;;;20.03;25.49
35716;BME280;21840;44.920;8.616;2023-04-01T20:02:43;99250.53;;;19.89;26.13
35716;BME280;21840;44.920;8.616;2023-04-01T20:08:19;99249.88;;;19.93;26.02
35716;BME280;21840;44.920;8.616;2023-04-01T20:13:40;99255.06;;;19.88;26.45
35716;BME280;21840;44.920;8.616;2023-04-01T20:16:09;99252.53;;;20.12;26.04
35716;BME280;21840;44.920;8.616;2023-04-01T20:18:49;99251.56;;;19.69;26.74
35716;BME280;21840;44.920;8.616;2023-04-01T20:23:58;99249.66;;;19.76;27.47
35716;BME280;21840;44.920;8.616;2023-04-01T20:26:46;99253.72;;;19.79;27.59
35716;BME280;21840;44.920;8.616;2023-04-01T20:35:41;99257.50;;;19.71;28.39
35716;BME280;21840;44.920;8.616;2023-04-01T20:40:28;99264.25;;;19.74;28.66
35716;BME280;21840;44.920;8.616;2023-04-01T20:45:55;99264.53;;;19.84;28.73
35716;BME280;21840;44.920;8.616;2023-04-01T20:48:31;99269.19;;;19.89;28.85
35716;BME280;21840;44.920;8.616;2023-04-01T20:51:06;99258.41;;;19.83;28.86
35716;BME280;21840;44.920;8.616;2023-04-01T20:59:03;99272.94;;;19.63;28.87
35716;BME280;21840;44.920;8.616;2023-04-01T21:01:48;99278.00;;;19.71;28.73
35716;BME280;21840;44.920;8.616;2023-04-01T21:15:50;99287.50;;;19.60;28.61
35716;BME280;21840;44.920;8.616;2023-04-01T21:32:08;99293.06;;;19.33;28.88
35716;BME280;21840;44.920;8.616;2023-04-01T21:34:43;99284.94;;;19.28;29.06
35716;BME280;21840;44.920;8.616;2023-04-01T21:39:56;99285.97;;;19.27;29.19
35716;BME280;21840;44.920;8.616;2023-04-01T21:43:02;99283.84;;;19.36;29.31
35716;BME280;21840;44.920;8.616;2023-04-01T21:45:57;99286.78;;;19.28;29.21
35716;BME280;21840;44.920;8.616;2023-04-01T21:59:45;99288.81;;;19.07;30.46
35716;BME280;21840;44.920;8.616;2023-04-01T22:05:28;99284.31;;;19.01;30.20
35716;BME280;21840;44.920;8.616;2023-04-01T22:10:45;99285.91;;;19.09;30.44
35716;BME280;21840;44.920;8.616;2023-04-01T22:13:20;99291.50;;;19.01;31.10
35716;BME280;21840;44.920;8.616;2023-04-01T22:16:16;99299.66;;;19.06;30.63
35716;BME280;21840;44.920;8.616;2023-04-01T22:21:44;99299.31;;;18.95;31.51
35716;BME280;21840;44.920;8.616;2023-04-01T22:32:23;99294.97;;;19.01;31.73
35716;BME280;21840;44.920;8.616;2023-04-01T22:35:02;99286.94;;;18.83;32.15
35716;BME280;21840;44.920;8.616;2023-04-01T22:40:44;99293.25;;;18.82;32.47
35716;BME280;21840;44.920;8.616;2023-04-01T22:43:13;99282.38;;;18.90;32.35
35716;BME280;21840;44.920;8.616;2023-04-01T22:51:38;99277.13;;;18.77;32.97
35716;BME280;21840;44.920;8.616;2023-04-01T22:54:19;99281.63;;;18.69;33.18
35716;BME280;21840;44.920;8.616;2023-04-01T22:56:53;99273.66;;;18.76;33.21
35716;BME280;21840;44.920;8.616;2023-04-01T23:04:54;99289.72;;;18.56;33.79
35716;BME280;21840;44.920;8.616;2023-04-01T23:10:54;99278.97;;;18.38;34.27
35716;BME280;21840;44.920;8.616;2023-04-01T23:13:25;99288.59;;;18.32;34.47
35716;BME280;21840;44.920;8.616;2023-04-01T23:15:53;99280.31;;;18.15;35.19
35716;BME280;21840;44.920;8.616;2023-04-01T23:18:25;99279.06;;;18.18;35.22
35716;BME280;21840;44.920;8.616;2023-04-01T23:36:43;99286.09;;;17.72;36.71
35716;BME280;21840;44.920;8.616;2023-04-01T23:39:36;99283.28;;;17.54;37.42
35716;BME280;21840;44.920;8.616;2023-04-01T23:44:29;99286.56;;;17.62;37.17
35716;BME280;21840;44.920;8.616;2023-04-01T23:46:57;99282.88;;;17.70;36.72
35716;BME280;21840;44.920;8.616;2023-04-01T23:49:39;99295.56;;;17.41;37.72
35716;BME280;21840;44.920;8.616;2023-04-01T23:55:03;99293.94;;;17.14;38.17
35716;BME280;21840;44.920;8.616;2023-04-01T23:57:35;99295.16;;;17.18;37.38
